createdAt,value
2018-11-12T00:01:34.057Z,101206.23
2018-11-12T00:04:02.347Z,101211.42
2018-11-12T00:06:30.762Z,101213.27
2018-11-12T00:08:58.956Z,101204.33
2018-11-12T00:11:27.097Z,101203.52
2018-11-12T00:13:55.245Z,101191.77
2018-11-12T00:16:23.379Z,101196.34
2018-11-12T00:18:51.511Z,101202.91
2018-11-12T00:21:19.643Z,101199.14
2018-11-12T00:23:47.895Z,101207.33
2018-11-12T00:26:16.037Z,101213.78
2018-11-12T00:28:44.170Z,101218.90
2018-11-12T00:31:12.517Z,101213.91
2018-11-12T00:33:40.686Z,101225.79
2018-11-12T00:36:08.874Z,101234.11
2018-11-12T00:38:37.072Z,101226.68
2018-11-12T00:41:05.234Z,101222.86
2018-11-12T00:43:33.407Z,101223.33
2018-11-12T00:46:01.863Z,101251.77
2018-11-12T00:48:30.161Z,101284.89
2018-11-12T00:50:58.984Z,101307.84
2018-11-12T00:53:27.189Z,101280.13
2018-11-12T00:55:55.372Z,101264.26
2018-11-12T00:58:23.596Z,101266.44
2018-11-12T01:00:51.805Z,101280.00
2018-11-12T01:03:23.001Z,101276.27
2018-11-12T01:05:51.355Z,101274.34
2018-11-12T01:08:19.653Z,101267.37
2018-11-12T01:10:48.059Z,101279.98
2018-11-12T01:13:16.327Z,101275.92
2018-11-12T01:15:44.623Z,101264.57
2018-11-12T01:18:12.800Z,101268.95
2018-11-12T01:20:41.021Z,101278.23
2018-11-12T01:23:09.224Z,101282.42
2018-11-12T01:25:37.481Z,101266.96
2018-11-12T01:28:05.716Z,101262.36
2018-11-12T01:30:33.911Z,101267.55
2018-11-12T01:33:01.993Z,101263.63
2018-11-12T01:35:30.189Z,101267.51
2018-11-12T01:37:58.332Z,101259.64
2018-11-12T01:40:26.454Z,101277.47
2018-11-12T01:42:54.665Z,101285.87
2018-11-12T01:45:22.794Z,101287.22
2018-11-12T01:47:51.277Z,101283.72
2018-11-12T01:50:20.162Z,101288.80
2018-11-12T01:52:49.060Z,101288.59
2018-11-12T01:55:18.267Z,101291.64
2018-11-12T01:57:46.546Z,101287.05
2018-11-12T02:00:20.692Z,101291.53
2018-11-12T02:02:50.069Z,101290.11
2018-11-12T02:05:18.653Z,101278.14
2018-11-12T02:07:46.800Z,101279.98
2018-11-12T02:10:16.281Z,101280.59
2018-11-12T02:12:44.635Z,101289.55
2018-11-12T02:15:16.836Z,101285.34
2018-11-12T02:17:46.118Z,101272.59
2018-11-12T02:20:15.497Z,101289.21
2018-11-12T02:22:44.513Z,101279.53
2018-11-12T02:25:13.244Z,101282.76
2018-11-12T02:27:41.350Z,101284.47
2018-11-12T02:30:12.249Z,101299.15
2018-11-12T02:32:40.645Z,101295.06
2018-11-12T02:35:09.066Z,101298.31
2018-11-12T02:37:37.888Z,101285.68
2018-11-12T02:40:06.777Z,101284.11
2018-11-12T02:42:34.939Z,101268.58
2018-11-12T02:45:03.149Z,101276.88
2018-11-12T02:47:31.438Z,101280.44
2018-11-12T02:49:59.900Z,101293.64
2018-11-12T02:52:28.312Z,101292.16
2018-11-12T02:54:56.492Z,101275.26
2018-11-12T02:57:24.721Z,101277.33
2018-11-12T02:59:52.792Z,101276.16
2018-11-12T03:02:20.933Z,101270.94
2018-11-12T03:04:49.079Z,101271.27
2018-11-12T03:07:17.248Z,101270.59
2018-11-12T03:09:45.426Z,101276.30
2018-11-12T03:12:13.613Z,101269.97
2018-11-12T03:14:41.799Z,101278.48
2018-11-12T03:17:09.954Z,101285.85
2018-11-12T03:19:38.067Z,101277.42
2018-11-12T03:22:06.172Z,101277.34
2018-11-12T03:24:34.616Z,101270.04
2018-11-12T03:27:02.965Z,101268.58
2018-11-12T03:29:31.099Z,101265.88
2018-11-12T03:31:59.345Z,101261.77
2018-11-12T03:34:27.614Z,101263.47
2018-11-12T03:36:55.834Z,101249.23
2018-11-12T03:39:24.018Z,101259.78
2018-11-12T03:41:52.217Z,101265.69
2018-11-12T03:44:20.618Z,101255.08
2018-11-12T03:46:48.938Z,101258.25
2018-11-12T03:49:17.117Z,101259.88
2018-11-12T03:51:45.276Z,101257.34
2018-11-12T03:54:13.372Z,101260.81
2018-11-12T03:56:41.520Z,101262.31
2018-11-12T03:59:09.806Z,101274.01
2018-11-12T04:01:44.568Z,101278.64
2018-11-12T04:04:13.867Z,101277.77
2018-11-12T04:06:42.180Z,101280.70
2018-11-12T04:09:11.467Z,101288.95
2018-11-12T04:11:40.746Z,101290.14
2018-11-12T04:14:09.951Z,101284.80
2018-11-12T04:16:38.634Z,101286.61
2018-11-12T04:19:07.151Z,101279.96
2018-11-12T04:21:35.511Z,101280.46
2018-11-12T04:24:03.790Z,101279.59
2018-11-12T04:26:32.021Z,101277.67
2018-11-12T04:29:00.569Z,101286.18
2018-11-12T04:31:28.684Z,101279.61
2018-11-12T04:33:57.008Z,101281.56
2018-11-12T04:36:25.942Z,101288.13
2018-11-12T04:38:54.934Z,101285.50
2018-11-12T04:41:23.225Z,101288.88
2018-11-12T04:43:51.646Z,101293.08
2018-11-12T04:46:19.944Z,101290.48
2018-11-12T04:48:48.149Z,101288.09
2018-11-12T04:51:16.472Z,101297.73
2018-11-12T04:53:44.767Z,101302.92
2018-11-12T04:56:13.267Z,101286.31
2018-11-12T04:58:41.786Z,101288.98
2018-11-12T05:01:10.410Z,101288.34
2018-11-12T05:03:38.923Z,101290.56
2018-11-12T05:06:07.064Z,101288.34
2018-11-12T05:08:35.228Z,101290.09
2018-11-12T05:11:03.336Z,101287.64
2018-11-12T05:13:31.460Z,101288.96
2018-11-12T05:15:59.606Z,101285.09
2018-11-12T05:18:27.710Z,101276.98
2018-11-12T05:20:55.832Z,101284.66
2018-11-12T05:23:24.016Z,101289.59
2018-11-12T05:25:52.170Z,101288.09
2018-11-12T05:28:20.386Z,101283.91
2018-11-12T05:30:48.714Z,101286.77
2018-11-12T05:33:16.878Z,101289.27
2018-11-12T05:35:45.070Z,101293.48
2018-11-12T05:38:13.222Z,101296.02
2018-11-12T05:40:41.332Z,101301.48
2018-11-12T05:43:09.468Z,101301.20
2018-11-12T05:45:37.615Z,101306.81
2018-11-12T05:48:06.610Z,101318.23
2018-11-12T05:50:34.905Z,101328.36
2018-11-12T05:53:04.424Z,101325.31
2018-11-12T05:55:33.322Z,101331.44
2018-11-12T05:58:01.920Z,101332.17
2018-11-12T06:00:31.321Z,101334.94
2018-11-12T06:03:00.912Z,101335.91
2018-11-12T06:05:29.146Z,101338.19
2018-11-12T06:07:57.412Z,101343.70
2018-11-12T06:10:27.088Z,101341.23
2018-11-12T06:12:55.262Z,101345.87
2018-11-12T06:15:23.786Z,101346.22
2018-11-12T06:17:52.422Z,101352.25
2018-11-12T06:20:21.902Z,101354.98
2018-11-12T06:22:50.250Z,101354.00
2018-11-12T06:25:19.648Z,101351.51
2018-11-12T06:27:48.158Z,101352.02
2018-11-12T06:30:17.858Z,101349.73
2018-11-12T06:32:52.950Z,101341.64
2018-11-12T06:35:21.661Z,101345.20
2018-11-12T06:37:50.752Z,101351.17
2018-11-12T06:40:20.286Z,101356.53
2018-11-12T06:42:48.745Z,101348.81
2018-11-12T06:45:19.025Z,101363.97
2018-11-12T06:47:48.318Z,101361.38
2018-11-12T06:50:17.998Z,101367.12
2018-11-12T06:52:46.151Z,101366.79
2018-11-12T06:55:15.060Z,101368.08
2018-11-12T06:57:43.537Z,101368.95
2018-11-12T07:00:15.088Z,101367.23
2018-11-12T07:02:43.294Z,101358.05
2018-11-12T07:05:11.860Z,101360.89
2018-11-12T07:07:40.203Z,101363.02
2018-11-12T07:10:10.379Z,101371.77
2018-11-12T07:12:38.772Z,101364.03
2018-11-12T07:15:08.739Z,101350.83
2018-11-12T07:17:36.938Z,101360.90
2018-11-12T07:20:06.903Z,101358.08
2018-11-12T07:22:35.086Z,101346.22
2018-11-12T07:25:10.708Z,101338.34
2018-11-12T07:27:38.884Z,101348.39
2018-11-12T07:30:09.442Z,101340.94
2018-11-12T07:32:37.607Z,101339.70
2018-11-12T07:35:07.023Z,101344.61
2018-11-12T07:37:35.260Z,101357.12
2018-11-12T07:40:03.807Z,101361.23
2018-11-12T07:42:32.033Z,101372.63
2018-11-12T07:45:00.288Z,101376.53
2018-11-12T07:47:28.518Z,101386.88
2018-11-12T07:49:56.771Z,101386.45
2018-11-12T07:52:24.972Z,101392.94
2018-11-12T07:54:53.261Z,101393.23
2018-11-12T07:57:21.411Z,101402.91
2018-11-12T07:59:56.302Z,101393.22
2018-11-12T08:02:24.524Z,101390.73
2018-11-12T08:04:52.752Z,101384.03
2018-11-12T08:07:20.925Z,101381.09
2018-11-12T08:09:49.229Z,101392.51
2018-11-12T08:12:17.436Z,101392.63
2018-11-12T08:14:45.693Z,101397.42
2018-11-12T08:17:13.871Z,101399.41
2018-11-12T08:19:42.065Z,101402.06
2018-11-12T08:22:10.277Z,101423.06
2018-11-12T08:24:38.585Z,101419.72
2018-11-12T08:27:06.736Z,101404.87
2018-11-12T08:29:35.485Z,101403.98
2018-11-12T08:32:04.199Z,101387.23
2018-11-12T08:34:32.553Z,101388.39
2018-11-12T08:37:00.762Z,101387.14
2018-11-12T08:39:29.045Z,101392.64
2018-11-12T08:41:57.197Z,101389.05
2018-11-12T08:44:25.397Z,101386.86
2018-11-12T08:46:53.754Z,101395.63
2018-11-12T08:49:22.062Z,101407.14
2018-11-12T08:51:50.219Z,101392.11
2018-11-12T08:54:19.668Z,101396.21
2018-11-12T08:56:47.809Z,101408.61
2018-11-12T08:59:16.122Z,101408.82
2018-11-12T09:01:44.350Z,101414.22
2018-11-12T09:04:12.618Z,101421.95
2018-11-12T09:06:40.784Z,101418.09
2018-11-12T09:09:11.337Z,101413.47
2018-11-12T09:11:39.750Z,101404.13
2018-11-12T09:14:08.407Z,101396.70
2018-11-12T09:16:36.617Z,101394.89
2018-11-12T09:19:05.549Z,101394.77
2018-11-12T09:21:33.767Z,101393.97
2018-11-12T09:24:02.372Z,101406.02
2018-11-12T09:26:30.842Z,101412.34
2018-11-12T09:28:59.427Z,101418.86
2018-11-12T09:31:28.064Z,101415.00
2018-11-12T09:36:24.574Z,101421.69
2018-11-12T09:38:52.941Z,101413.42
2018-11-12T09:41:21.125Z,101411.80
2018-11-12T09:43:49.322Z,101413.17
2018-11-12T09:46:17.594Z,101407.78
2018-11-12T09:48:52.665Z,101410.89
2018-11-12T09:51:21.317Z,101411.38
2018-11-12T09:53:49.711Z,101406.58
2018-11-12T09:56:17.866Z,101399.38
2018-11-12T09:58:46.111Z,101393.69
2018-11-12T10:01:14.441Z,101386.04
2018-11-12T10:03:44.013Z,101386.05
2018-11-12T10:06:12.287Z,101389.84
2018-11-12T10:08:40.799Z,101384.62
2018-11-12T10:11:10.468Z,101379.83
2018-11-12T10:13:39.171Z,101374.34
2018-11-12T10:16:07.739Z,101366.14
2018-11-12T10:18:33.362Z,101360.35
2018-11-12T10:21:01.692Z,101354.08
2018-11-12T10:23:30.070Z,101360.92
2018-11-12T10:25:58.291Z,101353.47
2018-11-12T10:28:26.742Z,101363.48
2018-11-12T10:30:55.005Z,101371.60
2018-11-12T10:33:23.299Z,101366.58
2018-11-12T10:35:51.478Z,101362.61
2018-11-12T10:38:19.661Z,101357.38
2018-11-12T10:40:54.555Z,101354.13
2018-11-12T10:43:22.769Z,101341.02
2018-11-12T10:45:50.991Z,101350.92
2018-11-12T10:48:19.152Z,101349.51
2018-11-12T10:50:47.347Z,101352.47
2018-11-12T10:53:15.664Z,101345.42
2018-11-12T10:55:44.052Z,101343.62
2018-11-12T10:58:12.174Z,101344.99
2018-11-12T11:00:45.888Z,101345.81
2018-11-12T11:03:19.460Z,101346.42
2018-11-12T11:05:49.600Z,101336.87
2018-11-12T11:08:17.970Z,101330.92
2018-11-12T11:10:46.311Z,101331.59
2018-11-12T11:13:14.522Z,101336.29
2018-11-12T11:15:42.802Z,101337.75
2018-11-12T11:18:10.975Z,101332.53
2018-11-12T11:20:39.272Z,101315.84
2018-11-12T11:23:07.455Z,101317.42
2018-11-12T11:25:35.700Z,101310.69
2018-11-12T11:28:03.956Z,101319.39
2018-11-12T11:30:33.339Z,101311.37
2018-11-12T11:33:01.570Z,101313.69
2018-11-12T11:35:29.775Z,101313.45
2018-11-12T11:37:58.011Z,101314.48
2018-11-12T11:40:27.207Z,101319.16
2018-11-12T11:42:55.894Z,101314.50
2018-11-12T11:45:24.241Z,101316.84
2018-11-12T11:47:53.571Z,101322.20
2018-11-12T11:50:23.104Z,101312.86
2018-11-12T11:52:51.378Z,101311.05
2018-11-12T11:55:20.928Z,101310.45
2018-11-12T11:57:49.706Z,101298.22
2018-11-12T12:00:22.344Z,101298.00
2018-11-12T12:02:51.710Z,101298.08
2018-11-12T12:05:20.764Z,101296.32
2018-11-12T12:07:49.408Z,101300.94
2018-11-12T12:10:17.897Z,101308.96
2018-11-12T12:12:47.277Z,101299.28
2018-11-12T12:15:17.745Z,101299.13
2018-11-12T12:17:46.174Z,101293.12
2018-11-12T12:20:17.761Z,101292.25
2018-11-12T12:22:46.145Z,101295.59
2018-11-12T12:25:15.440Z,101291.91
2018-11-12T12:27:44.058Z,101287.74
2018-11-12T12:30:15.505Z,101291.09
2018-11-12T12:32:44.746Z,101288.03
2018-11-12T12:35:13.421Z,101278.42
2018-11-12T12:37:42.233Z,101279.53
2018-11-12T12:40:11.469Z,101284.70
2018-11-12T12:42:40.085Z,101279.98
2018-11-12T12:45:09.505Z,101268.72
2018-11-12T12:47:37.671Z,101267.78
2018-11-12T12:50:07.183Z,101270.34
2018-11-12T12:52:35.326Z,101267.59
2018-11-12T12:55:03.424Z,101265.32
2018-11-12T12:57:31.714Z,101273.06
2018-11-12T12:59:59.980Z,101266.05
2018-11-12T13:02:28.065Z,101269.20
2018-11-12T13:04:56.385Z,101264.19
2018-11-12T13:07:24.481Z,101251.94
2018-11-12T13:09:52.686Z,101255.86
2018-11-12T13:12:21.277Z,101247.63
2018-11-12T13:14:49.490Z,101248.11
2018-11-12T13:17:17.605Z,101247.13
2018-11-12T13:19:45.820Z,101246.91
2018-11-12T13:22:13.915Z,101244.81
2018-11-12T13:24:42.144Z,101243.55
2018-11-12T13:27:11.481Z,101246.49
2018-11-12T13:29:39.734Z,101247.35
2018-11-12T13:32:07.929Z,101251.34
2018-11-12T13:34:36.099Z,101247.73
2018-11-12T13:37:04.577Z,101244.36
2018-11-12T13:39:32.822Z,101246.73
2018-11-12T13:42:01.055Z,101246.59
2018-11-12T13:44:29.315Z,101250.09
2018-11-12T13:46:58.556Z,101255.50
2018-11-12T13:49:26.699Z,101257.45
2018-11-12T13:51:54.971Z,101251.30
2018-11-12T13:54:23.143Z,101248.98
2018-11-12T13:56:51.398Z,101255.06
2018-11-12T13:59:19.559Z,101253.03
2018-11-12T14:01:47.761Z,101256.00
2018-11-12T14:04:18.298Z,101256.38
2018-11-12T14:06:46.622Z,101256.12
2018-11-12T14:09:14.825Z,101257.80
2018-11-12T14:11:42.969Z,101251.43
2018-11-12T14:14:11.100Z,101252.31
2018-11-12T14:16:39.256Z,101259.41
2018-11-12T14:19:07.429Z,101256.71
2018-11-12T14:21:35.765Z,101258.28
2018-11-12T14:24:04.166Z,101261.67
2018-11-12T14:26:32.378Z,101261.53
2018-11-12T14:29:00.538Z,101271.42
2018-11-12T14:31:29.058Z,101268.11
2018-11-12T14:33:57.435Z,101265.49
2018-11-12T14:36:25.574Z,101273.47
2018-11-12T14:38:54.010Z,101268.98
2018-11-12T14:41:22.232Z,101265.92
2018-11-12T14:43:50.472Z,101261.58
2018-11-12T14:46:18.572Z,101258.59
2018-11-12T14:48:46.735Z,101258.20
2018-11-12T14:51:14.924Z,101257.83
2018-11-12T14:53:43.229Z,101258.95
2018-11-12T14:56:11.436Z,101254.39
2018-11-12T14:58:39.601Z,101259.91
2018-11-12T15:01:07.759Z,101262.66
2018-11-12T15:03:35.953Z,101257.62
2018-11-12T15:06:04.615Z,101253.16
2018-11-12T15:08:32.745Z,101254.58
2018-11-12T15:11:00.989Z,101258.59
2018-11-12T15:13:29.091Z,101272.23
2018-11-12T15:15:57.269Z,101270.81
2018-11-12T15:18:25.401Z,101266.95
2018-11-12T15:20:53.549Z,101267.32
2018-11-12T15:23:21.767Z,101266.53
2018-11-12T15:25:49.841Z,101272.97
2018-11-12T15:28:18.364Z,101274.03
2018-11-12T15:30:46.572Z,101268.75
2018-11-12T15:33:14.717Z,101266.20
2018-11-12T15:35:43.047Z,101269.09
2018-11-12T15:38:11.235Z,101272.81
2018-11-12T15:40:39.449Z,101275.70
2018-11-12T15:43:07.893Z,101276.68
2018-11-12T15:45:36.051Z,101273.34
2018-11-12T15:48:04.179Z,101281.86
2018-11-12T15:50:38.107Z,101277.34
2018-11-12T15:53:06.248Z,101282.86
2018-11-12T15:55:34.419Z,101281.71
2018-11-12T15:58:02.650Z,101283.14
2018-11-12T16:00:30.811Z,101279.89
2018-11-12T16:02:59.003Z,101285.69
2018-11-12T16:05:27.273Z,101283.50
2018-11-12T16:07:55.778Z,101285.75
2018-11-12T16:10:23.993Z,101278.46
2018-11-12T16:12:52.248Z,101273.34
2018-11-12T16:15:21.397Z,101272.28
2018-11-12T16:17:49.566Z,101274.25
2018-11-12T16:20:20.276Z,101284.34
2018-11-12T16:22:49.122Z,101279.41
2018-11-12T16:25:17.757Z,101276.00
2018-11-12T16:27:45.904Z,101283.80
2018-11-12T16:30:14.459Z,101280.83
2018-11-12T16:32:43.299Z,101281.34
2018-11-12T16:35:14.623Z,101283.66
2018-11-12T16:37:43.500Z,101277.86
2018-11-12T16:40:11.735Z,101275.09
2018-11-12T16:42:40.934Z,101283.30
2018-11-12T16:45:09.086Z,101287.33
2018-11-12T16:47:37.268Z,101291.75
2018-11-12T16:50:06.854Z,101281.75
2018-11-12T16:52:35.134Z,101277.95
2018-11-12T16:55:03.397Z,101277.95
2018-11-12T16:57:31.583Z,101281.23
2018-11-12T16:59:59.881Z,101291.69
2018-11-12T17:02:28.353Z,101291.05
2018-11-12T17:04:56.545Z,101295.75
2018-11-12T17:07:24.766Z,101284.14
2018-11-12T17:09:52.938Z,101286.59
2018-11-12T17:12:21.153Z,101282.53
2018-11-12T17:14:49.290Z,101286.98
2018-11-12T17:17:17.453Z,101286.53
2018-11-12T17:19:45.638Z,101286.92
2018-11-12T17:22:13.878Z,101292.52
2018-11-12T17:24:42.082Z,101300.93
2018-11-12T17:27:10.337Z,101295.72
2018-11-12T17:29:38.613Z,101299.95
2018-11-12T17:32:06.791Z,101295.13
2018-11-12T17:34:34.971Z,101297.33
2018-11-12T17:37:03.210Z,101300.48
2018-11-12T17:39:31.404Z,101294.67
2018-11-12T17:41:59.561Z,101294.06
2018-11-12T17:44:27.731Z,101301.14
2018-11-12T17:46:55.917Z,101295.30
2018-11-12T17:49:24.131Z,101285.23
2018-11-12T17:51:52.304Z,101291.27
2018-11-12T17:54:20.464Z,101297.11
2018-11-12T17:56:48.626Z,101289.51
2018-11-12T17:59:16.845Z,101288.73
2018-11-12T18:01:45.006Z,101290.03
2018-11-12T18:04:13.239Z,101294.08
2018-11-12T18:06:41.383Z,101294.11
2018-11-12T18:09:10.942Z,101304.53
2018-11-12T18:11:39.110Z,101307.89
2018-11-12T18:14:09.081Z,101303.23
2018-11-12T18:16:37.265Z,101300.11
2018-11-12T18:19:05.817Z,101300.33
2018-11-12T18:21:34.004Z,101305.31
2018-11-12T18:24:02.180Z,101318.74
2018-11-12T18:26:30.370Z,101320.30
2018-11-12T18:28:58.559Z,101315.42
2018-11-12T18:31:27.291Z,101321.73
2018-11-12T18:33:55.400Z,101324.52
2018-11-12T18:36:23.601Z,101318.41
2018-11-12T18:38:51.826Z,101327.30
2018-11-12T18:41:20.044Z,101327.98
2018-11-12T18:43:48.253Z,101328.12
2018-11-12T18:46:16.464Z,101328.84
2018-11-12T18:48:44.637Z,101319.90
2018-11-12T18:51:12.833Z,101305.57
2018-11-12T18:53:41.158Z,101312.02
2018-11-12T18:56:09.422Z,101321.12
2018-11-12T18:58:37.631Z,101308.69
2018-11-12T19:01:06.379Z,101316.16
2018-11-12T19:03:34.637Z,101318.70
2018-11-12T19:06:02.845Z,101318.00
2018-11-12T19:08:31.098Z,101323.30
2018-11-12T19:10:59.387Z,101326.86
2018-11-12T19:13:27.534Z,101333.30
2018-11-12T19:15:55.718Z,101342.70
2018-11-12T19:18:23.924Z,101342.45
2018-11-12T19:20:52.248Z,101358.20
2018-11-12T19:23:20.434Z,101358.55
2018-11-12T19:25:48.622Z,101356.06
2018-11-12T19:28:17.429Z,101356.77
2018-11-12T19:30:45.723Z,101362.20
2018-11-12T19:33:13.933Z,101365.36
2018-11-12T19:35:42.886Z,101360.20
2018-11-12T19:38:11.117Z,101365.98
2018-11-12T19:40:39.360Z,101363.03
2018-11-12T19:43:07.621Z,101356.45
2018-11-12T19:45:35.919Z,101357.56
2018-11-12T19:48:04.332Z,101359.02
2018-11-12T19:50:32.615Z,101355.20
2018-11-12T19:53:01.301Z,101357.94
2018-11-12T19:55:29.537Z,101357.22
2018-11-12T19:57:57.815Z,101359.21
2018-11-12T20:00:27.188Z,101361.81
2018-11-12T20:02:56.683Z,101359.67
2018-11-12T20:05:24.956Z,101363.84
2018-11-12T20:07:53.479Z,101355.66
2018-11-12T20:10:22.668Z,101360.38
2018-11-12T20:12:50.904Z,101363.55
2018-11-12T20:15:21.504Z,101357.00
2018-11-12T20:17:50.650Z,101365.80
2018-11-12T20:20:29.080Z,101363.02
2018-11-12T20:22:57.331Z,101359.67
2018-11-12T20:25:25.522Z,101356.58
2018-11-12T20:28:08.522Z,101361.25
2018-11-12T20:30:38.605Z,101371.04
2018-11-12T20:33:07.228Z,101361.67
2018-11-12T20:35:35.527Z,101367.59
2018-11-12T20:38:03.956Z,101372.27
2018-11-12T20:40:32.232Z,101363.47
2018-11-12T20:43:00.897Z,101365.61
2018-11-12T20:45:29.207Z,101360.06
2018-11-12T20:47:58.008Z,101365.95
2018-11-12T20:50:26.275Z,101379.61
2018-11-12T20:52:55.458Z,101373.17
2018-11-12T20:55:24.129Z,101382.37
2018-11-12T20:57:53.556Z,101392.34
2018-11-12T21:00:24.240Z,101379.84
2018-11-12T21:02:53.292Z,101375.78
2018-11-12T21:05:22.951Z,101390.72
2018-11-12T21:07:51.342Z,101390.81
2018-11-12T21:10:20.110Z,101396.23
2018-11-12T21:12:52.876Z,101387.26
2018-11-12T21:15:22.193Z,101390.43
2018-11-12T21:17:50.641Z,101381.17
2018-11-12T21:20:23.143Z,101374.33
2018-11-12T21:22:51.443Z,101371.11
2018-11-12T21:25:21.065Z,101376.20
2018-11-12T21:27:49.316Z,101369.89
2018-11-12T21:30:21.419Z,101364.30
2018-11-12T21:32:50.778Z,101362.39
2018-11-12T21:35:19.078Z,101364.61
2018-11-12T21:37:47.689Z,101370.55
2018-11-12T21:40:17.339Z,101366.64
2018-11-12T21:42:45.618Z,101363.23
2018-11-12T21:45:15.449Z,101373.25
2018-11-12T21:47:44.197Z,101379.91
2018-11-12T21:50:14.197Z,101382.20
2018-11-12T21:52:43.332Z,101393.20
2018-11-12T21:55:12.155Z,101392.03
2018-11-12T21:57:40.871Z,101401.14
2018-11-12T22:00:15.468Z,101390.30
2018-11-12T22:02:44.275Z,101390.19
2018-11-12T22:05:12.594Z,101382.89
2018-11-12T22:07:40.766Z,101379.10
2018-11-12T22:10:10.737Z,101386.56
2018-11-12T22:12:38.976Z,101382.92
2018-11-12T22:15:07.715Z,101390.48
2018-11-12T22:17:36.095Z,101385.45
2018-11-12T22:20:05.315Z,101384.64
2018-11-12T22:22:33.546Z,101384.64
2018-11-12T22:25:01.694Z,101387.19
2018-11-12T22:27:30.195Z,101391.20
2018-11-12T22:29:58.296Z,101389.04
2018-11-12T22:32:26.729Z,101382.09
2018-11-12T22:34:55.189Z,101376.89
2018-11-12T22:37:23.717Z,101370.10
2018-11-12T22:39:51.788Z,101368.86
2018-11-12T22:42:19.919Z,101369.41
2018-11-12T22:44:48.099Z,101385.54
2018-11-12T22:47:16.263Z,101379.64
2018-11-12T22:49:44.376Z,101389.20
2018-11-12T22:52:12.583Z,101397.34
2018-11-12T22:54:40.737Z,101398.48
2018-11-12T22:57:08.974Z,101402.64
2018-11-12T22:59:37.199Z,101418.80
2018-11-12T23:02:05.734Z,101415.42
2018-11-12T23:04:33.888Z,101410.34
2018-11-12T23:07:02.029Z,101413.22
2018-11-12T23:09:30.244Z,101415.71
2018-11-12T23:11:58.407Z,101416.49
2018-11-12T23:14:26.593Z,101422.77
2018-11-12T23:16:54.788Z,101412.73
2018-11-12T23:19:22.880Z,101415.27
2018-11-12T23:21:51.043Z,101425.48
2018-11-12T23:24:19.282Z,101420.28
2018-11-12T23:26:47.428Z,101408.61
2018-11-12T23:29:15.559Z,101414.47
2018-11-12T23:31:43.690Z,101418.72
2018-11-12T23:34:11.863Z,101414.81
2018-11-12T23:36:40.053Z,101424.61
2018-11-12T23:39:08.635Z,101417.94
2018-11-12T23:41:37.134Z,101426.14
2018-11-12T23:44:05.441Z,101430.77
2018-11-12T23:46:33.995Z,101422.16
2018-11-12T23:49:02.267Z,101425.41
2018-11-12T23:51:30.777Z,101430.61
2018-11-12T23:53:59.040Z,101435.95
2018-11-12T23:56:27.268Z,101439.48
2018-11-12T23:58:55.386Z,101439.09
